sensor_id;sensor_type;location;lat;lon;timestamp;pressure;altitude;pressure_sealevel;temperature;humidity
53300;BME280;39187;48.476;8.310;2023-02-25T00:01:09;90043.88;;;1.67;100.00
53300;BME280;39187;48.476;8.310;2023-02-25T00:03:36;90058.16;;;1.62;100.00
53300;BME280;39187;48.476;8.310;2023-02-25T00:06:04;90058.16;;;1.62;100.00
53300;BME280;39187;48.476;8.310;2023-02-25T00:08:30;90058.22;;;1.55;100.00
53300;BME280;39187;48.476;8.310;2023-02-25T00:11:04;90045.75;;;1.70;100.00
53300;BME280;39187;48.476;8.310;2023-02-25T00:13:30;90036.84;;;1.60;100.00
53300;BME280;39187;48.476;8.310;2023-02-25T00:15:56;90019.63;;;1.59;100.00
53300;BME280;39187;48.476;8.310;2023-02-25T00:18:26;90033.88;;;1.54;100.00
53300;BME280;39187;48.476;8.310;2023-02-25T00:20:52;90057.41;;;1.65;100.00
53300;BME280;39187;48.476;8.310;2023-02-25T00:23:18;90080.22;;;1.68;100.00
53300;BME280;39187;48.476;8.310;2023-02-25T00:25:43;90077.63;;;1.65;100.00
53300;BME280;39187;48.476;8.310;2023-02-25T00:28:09;90059.34;;;1.57;100.00
53300;BME280;39187;48.476;8.310;2023-02-25T00:30:37;90048.47;;;1.55;100.00
53300;BME280;39187;48.476;8.310;2023-02-25T00:33:03;90053.47;;;1.36;100.00
53300;BME280;39187;48.476;8.310;2023-02-25T00:35:31;90050.50;;;1.34;100.00
53300;BME280;39187;48.476;8.310;2023-02-25T00:37:56;90048.97;;;1.40;100.00
53300;BME280;39187;48.476;8.310;2023-02-25T00:40:23;90040.75;;;1.38;100.00
53300;BME280;39187;48.476;8.310;2023-02-25T00:42:48;90039.47;;;1.56;100.00
53300;BME280;39187;48.476;8.310;2023-02-25T00:45:14;90033.22;;;1.43;100.00
53300;BME280;39187;48.476;8.310;2023-02-25T00:47:40;90042.19;;;1.46;100.00
53300;BME280;39187;48.476;8.310;2023-02-25T00:50:07;90059.00;;;1.48;100.00
53300;BME280;39187;48.476;8.310;2023-02-25T00:52:35;90074.84;;;1.34;100.00
53300;BME280;39187;48.476;8.310;2023-02-25T00:55:03;90080.72;;;1.52;100.00
53300;BME280;39187;48.476;8.310;2023-02-25T00:57:28;90073.28;;;1.44;100.00
53300;BME280;39187;48.476;8.310;2023-02-25T00:59:54;90063.66;;;1.27;100.00
53300;BME280;39187;48.476;8.310;2023-02-25T01:02:20;90062.22;;;1.15;100.00
53300;BME280;39187;48.476;8.310;2023-02-25T01:04:45;90061.69;;;1.41;100.00
53300;BME280;39187;48.476;8.310;2023-02-25T01:07:11;90067.38;;;1.29;100.00
53300;BME280;39187;48.476;8.310;2023-02-25T01:09:37;90063.66;;;1.27;100.00
53300;BME280;39187;48.476;8.310;2023-02-25T01:12:03;90049.84;;;1.19;100.00
53300;BME280;39187;48.476;8.310;2023-02-25T01:14:28;90055.88;;;1.12;100.00
53300;BME280;39187;48.476;8.310;2023-02-25T01:16:54;90058.50;;;1.12;100.00
53300;BME280;39187;48.476;8.310;2023-02-25T01:19:26;90049.72;;;1.37;100.00
53300;BME280;39187;48.476;8.310;2023-02-25T01:21:56;90062.53;;;1.28;100.00
53300;BME280;39187;48.476;8.310;2023-02-25T01:26:52;90063.22;;;1.39;100.00
53300;BME280;39187;48.476;8.310;2023-02-25T01:29:21;90066.91;;;1.41;100.00
53300;BME280;39187;48.476;8.310;2023-02-25T01:31:51;90061.38;;;1.29;100.00
53300;BME280;39187;48.476;8.310;2023-02-25T01:34:17;90064.78;;;1.26;100.00
53300;BME280;39187;48.476;8.310;2023-02-25T01:36:43;90071.91;;;1.25;100.00
53300;BME280;39187;48.476;8.310;2023-02-25T01:39:10;90071.34;;;1.51;100.00
53300;BME280;39187;48.476;8.310;2023-02-25T01:41:36;90074.81;;;1.38;100.00
53300;BME280;39187;48.476;8.310;2023-02-25T01:46:35;90105.78;;;1.57;100.00
53300;BME280;39187;48.476;8.310;2023-02-25T01:49:02;90117.53;;;1.31;100.00
53300;BME280;39187;48.476;8.310;2023-02-25T01:51:32;90125.81;;;1.23;100.00
53300;BME280;39187;48.476;8.310;2023-02-25T01:53:58;90131.09;;;1.19;100.00
53300;BME280;39187;48.476;8.310;2023-02-25T01:56:28;90109.75;;;1.20;100.00
53300;BME280;39187;48.476;8.310;2023-02-25T01:58:55;90084.97;;;1.29;100.00
53300;BME280;39187;48.476;8.310;2023-02-25T02:01:25;90103.03;;;1.09;100.00
53300;BME280;39187;48.476;8.310;2023-02-25T02:03:53;90088.09;;;1.06;100.00
53300;BME280;39187;48.476;8.310;2023-02-25T02:06:24;90075.28;;;1.22;100.00
53300;BME280;39187;48.476;8.310;2023-02-25T02:08:52;90072.59;;;1.33;100.00
53300;BME280;39187;48.476;8.310;2023-02-25T02:11:19;90083.91;;;1.15;100.00
53300;BME280;39187;48.476;8.310;2023-02-25T02:13:49;90096.59;;;1.24;100.00
53300;BME280;39187;48.476;8.310;2023-02-25T02:19:27;90113.75;;;1.39;100.00
53300;BME280;39187;48.476;8.310;2023-02-25T02:21:58;90121.63;;;1.39;100.00
53300;BME280;39187;48.476;8.310;2023-02-25T02:36:16;90108.34;;;1.02;100.00
53300;BME280;39187;48.476;8.310;2023-02-25T02:39:13;90112.00;;;1.18;100.00
53300;BME280;39187;48.476;8.310;2023-02-25T02:42:10;90119.09;;;1.18;100.00
53300;BME280;39187;48.476;8.310;2023-02-25T02:44:57;90106.47;;;1.02;100.00
53300;BME280;39187;48.476;8.310;2023-02-25T02:47:35;90117.66;;;1.03;100.00
53300;BME280;39187;48.476;8.310;2023-02-25T02:52:33;90117.28;;;1.04;100.00
53300;BME280;39187;48.476;8.310;2023-02-25T02:55:05;90109.81;;;1.03;100.00
53300;BME280;39187;48.476;8.310;2023-02-25T02:57:34;90105.69;;;1.05;100.00
53300;BME280;39187;48.476;8.310;2023-02-25T03:00:04;90113.88;;;1.14;100.00
53300;BME280;39187;48.476;8.310;2023-02-25T03:02:56;90105.72;;;1.02;100.00
53300;BME280;39187;48.476;8.310;2023-02-25T03:05:24;90103.09;;;1.02;100.00
53300;BME280;39187;48.476;8.310;2023-02-25T03:08:00;90104.22;;;1.01;100.00
53300;BME280;39187;48.476;8.310;2023-02-25T03:10:28;90109.09;;;0.92;100.00
53300;BME280;39187;48.476;8.310;2023-02-25T03:12:54;90111.69;;;0.99;100.00
53300;BME280;39187;48.476;8.310;2023-02-25T03:15:19;90116.25;;;0.88;100.00
53300;BME280;39187;48.476;8.310;2023-02-25T03:17:53;90114.69;;;0.97;100.00
53300;BME280;39187;48.476;8.310;2023-02-25T03:20:42;90119.91;;;1.04;100.00
53300;BME280;39187;48.476;8.310;2023-02-25T03:23:14;90113.50;;;1.09;100.00
53300;BME280;39187;48.476;8.310;2023-02-25T03:25:45;90120.66;;;1.08;100.00
53300;BME280;39187;48.476;8.310;2023-02-25T03:28:34;90122.56;;;0.94;100.00
53300;BME280;39187;48.476;8.310;2023-02-25T03:31:16;90118.88;;;0.80;100.00
53300;BME280;39187;48.476;8.310;2023-02-25T03:34:12;90116.63;;;0.79;100.00
53300;BME280;39187;48.476;8.310;2023-02-25T03:36:43;90118.09;;;0.84;100.00
53300;BME280;39187;48.476;8.310;2023-02-25T03:39:19;90119.59;;;0.88;100.00
53300;BME280;39187;48.476;8.310;2023-02-25T03:41:49;90118.75;;;1.09;100.00
53300;BME280;39187;48.476;8.310;2023-02-25T03:44:20;90118.06;;;0.98;100.00
53300;BME280;39187;48.476;8.310;2023-02-25T03:46:46;90125.94;;;0.91;100.00
53300;BME280;39187;48.476;8.310;2023-02-25T03:49:20;90124.09;;;0.84;100.00
53300;BME280;39187;48.476;8.310;2023-02-25T03:51:48;90132.72;;;0.88;100.00
53300;BME280;39187;48.476;8.310;2023-02-25T03:54:14;90131.19;;;0.94;100.00
53300;BME280;39187;48.476;8.310;2023-02-25T03:56:43;90137.19;;;0.84;100.00
53300;BME280;39187;48.476;8.310;2023-02-25T03:59:09;90136.47;;;0.73;100.00
53300;BME280;39187;48.476;8.310;2023-02-25T04:01:34;90139.81;;;0.84;100.00
53300;BME280;39187;48.476;8.310;2023-02-25T04:04:02;90140.97;;;0.76;100.00
53300;BME280;39187;48.476;8.310;2023-02-25T04:06:28;90134.94;;;0.86;100.00
53300;BME280;39187;48.476;8.310;2023-02-25T04:08:54;90133.06;;;0.87;100.00
53300;BME280;39187;48.476;8.310;2023-02-25T04:11:20;90143.25;;;0.67;100.00
53300;BME280;39187;48.476;8.310;2023-02-25T04:13:46;90147.34;;;0.68;100.00
53300;BME280;39187;48.476;8.310;2023-02-25T04:16:11;90150.69;;;0.72;100.00
53300;BME280;39187;48.476;8.310;2023-02-25T04:18:53;90148.44;;;0.77;100.00
53300;BME280;39187;48.476;8.310;2023-02-25T04:21:38;90142.81;;;0.79;100.00
53300;BME280;39187;48.476;8.310;2023-02-25T04:24:04;90143.56;;;0.79;100.00
53300;BME280;39187;48.476;8.310;2023-02-25T04:26:34;90141.34;;;0.82;100.00
53300;BME280;39187;48.476;8.310;2023-02-25T04:29:00;90140.22;;;0.75;100.00
53300;BME280;39187;48.476;8.310;2023-02-25T04:31:26;90146.59;;;0.71;100.00
53300;BME280;39187;48.476;8.310;2023-02-25T04:36:35;90157.84;;;0.54;100.00
53300;BME280;39187;48.476;8.310;2023-02-25T04:39:04;90145.50;;;0.58;100.00
53300;BME280;39187;48.476;8.310;2023-02-25T04:41:32;90138.41;;;0.55;100.00
53300;BME280;39187;48.476;8.310;2023-02-25T04:43:58;90133.91;;;0.59;100.00
53300;BME280;39187;48.476;8.310;2023-02-25T04:46:25;90143.59;;;0.72;100.00
53300;BME280;39187;48.476;8.310;2023-02-25T04:48:55;90146.97;;;0.69;100.00
53300;BME280;39187;48.476;8.310;2023-02-25T04:51:21;90142.94;;;0.36;100.00
53300;BME280;39187;48.476;8.310;2023-02-25T04:53:47;90150.72;;;0.61;100.00
53300;BME280;39187;48.476;8.310;2023-02-25T04:56:13;90142.91;;;0.47;100.00
53300;BME280;39187;48.476;8.310;2023-02-25T04:58:38;90140.28;;;0.47;100.00
53300;BME280;39187;48.476;8.310;2023-02-25T05:01:06;90144.06;;;0.18;100.00
53300;BME280;39187;48.476;8.310;2023-02-25T05:03:33;90143.66;;;0.26;100.00
53300;BME280;39187;48.476;8.310;2023-02-25T05:06:00;90145.56;;;0.29;100.00
53300;BME280;39187;48.476;8.310;2023-02-25T05:08:26;90137.34;;;0.03;100.00
53300;BME280;39187;48.476;8.310;2023-02-25T05:10:52;90144.47;;;-0.02;100.00
53300;BME280;39187;48.476;8.310;2023-02-25T05:13:18;90147.78;;;0.13;100.00
53300;BME280;39187;48.476;8.310;2023-02-25T05:15:44;90155.28;;;-0.07;100.00
53300;BME280;39187;48.476;8.310;2023-02-25T05:18:10;90154.16;;;0.09;100.00
53300;BME280;39187;48.476;8.310;2023-02-25T05:20:44;90158.63;;;0.01;100.00
53300;BME280;39187;48.476;8.310;2023-02-25T05:23:09;90159.75;;;0.07;100.00
53300;BME280;39187;48.476;8.310;2023-02-25T05:25:37;90168.34;;;-0.03;100.00
53300;BME280;39187;48.476;8.310;2023-02-25T05:28:06;90170.22;;;0.18;100.00
53300;BME280;39187;48.476;8.310;2023-02-25T05:30:32;90162.41;;;0.00;100.00
53300;BME280;39187;48.476;8.310;2023-02-25T05:32:58;90165.00;;;-0.04;100.00
53300;BME280;39187;48.476;8.310;2023-02-25T05:35:24;90166.88;;;0.03;100.00
53300;BME280;39187;48.476;8.310;2023-02-25T05:37:49;90161.63;;;0.03;100.00
53300;BME280;39187;48.476;8.310;2023-02-25T05:40:15;90157.88;;;0.15;100.00
53300;BME280;39187;48.476;8.310;2023-02-25T05:42:41;90155.28;;;0.22;100.00
53300;BME280;39187;48.476;8.310;2023-02-25T05:45:07;90153.03;;;0.13;100.00
53300;BME280;39187;48.476;8.310;2023-02-25T05:47:33;90158.28;;;0.06;100.00
53300;BME280;39187;48.476;8.310;2023-02-25T05:50:00;90163.13;;;0.22;100.00
53300;BME280;39187;48.476;8.310;2023-02-25T05:52:25;90165.34;;;0.20;100.00
53300;BME280;39187;48.476;8.310;2023-02-25T05:54:51;90171.72;;;0.29;100.00
53300;BME280;39187;48.476;8.310;2023-02-25T05:57:17;90161.25;;;0.29;100.00
53300;BME280;39187;48.476;8.310;2023-02-25T05:59:43;90170.59;;;0.27;100.00
53300;BME280;39187;48.476;8.310;2023-02-25T06:02:08;90163.50;;;0.24;100.00
53300;BME280;39187;48.476;8.310;2023-02-25T06:04:34;90167.63;;;0.32;100.00
53300;BME280;39187;48.476;8.310;2023-02-25T06:07:00;90166.47;;;0.36;100.00
53300;BME280;39187;48.476;8.310;2023-02-25T06:09:27;90163.50;;;0.31;100.00
53300;BME280;39187;48.476;8.310;2023-02-25T06:11:53;90166.50;;;0.15;100.00
53300;BME280;39187;48.476;8.310;2023-02-25T06:14:19;90157.53;;;0.23;100.00
53300;BME280;39187;48.476;8.310;2023-02-25T06:16:44;90154.91;;;0.23;100.00
53300;BME280;39187;48.476;8.310;2023-02-25T06:19:10;90161.25;;;0.08;100.00
53300;BME280;39187;48.476;8.310;2023-02-25T06:21:37;90151.16;;;0.21;100.00
53300;BME280;39187;48.476;8.310;2023-02-25T06:24:03;90160.13;;;0.20;100.00
53300;BME280;39187;48.476;8.310;2023-02-25T06:26:29;90169.09;;;0.29;100.00
53300;BME280;39187;48.476;8.310;2023-02-25T06:28:55;90166.84;;;0.38;100.00
53300;BME280;39187;48.476;8.310;2023-02-25T06:31:22;90173.22;;;0.16;100.00
53300;BME280;39187;48.476;8.310;2023-02-25T06:33:49;90184.81;;;0.19;100.00
53300;BME280;39187;48.476;8.310;2023-02-25T06:36:19;90192.28;;;0.31;100.00
53300;BME280;39187;48.476;8.310;2023-02-25T06:38:45;90196.41;;;0.18;100.00
53300;BME280;39187;48.476;8.310;2023-02-25T06:41:17;90199.00;;;0.14;100.00
53300;BME280;39187;48.476;8.310;2023-02-25T06:43:44;90213.56;;;0.15;100.00
53300;BME280;39187;48.476;8.310;2023-02-25T06:46:12;90222.56;;;0.11;100.00
53300;BME280;39187;48.476;8.310;2023-02-25T06:48:38;90208.34;;;0.12;100.00
53300;BME280;39187;48.476;8.310;2023-02-25T06:51:05;90207.22;;;0.20;100.00
53300;BME280;39187;48.476;8.310;2023-02-25T06:53:38;90203.84;;;-0.02;100.00
53300;BME280;39187;48.476;8.310;2023-02-25T06:56:05;90199.78;;;0.25;100.00
53300;BME280;39187;48.476;8.310;2023-02-25T06:58:32;90204.59;;;0.09;100.00
53300;BME280;39187;48.476;8.310;2023-02-25T07:00:58;90208.72;;;0.28;100.00
53300;BME280;39187;48.476;8.310;2023-02-25T07:03:24;90201.63;;;0.18;100.00
53300;BME280;39187;48.476;8.310;2023-02-25T07:05:50;90203.09;;;0.58;100.00
53300;BME280;39187;48.476;8.310;2023-02-25T07:08:16;90209.03;;;0.79;100.00
53300;BME280;39187;48.476;8.310;2023-02-25T07:10:42;90210.44;;;1.16;100.00
53300;BME280;39187;48.476;8.310;2023-02-25T07:13:09;90198.38;;;1.40;98.76
53300;BME280;39187;48.476;8.310;2023-02-25T07:15:35;90214.41;;;1.56;97.33
53300;BME280;39187;48.476;8.310;2023-02-25T07:18:02;90202.81;;;1.57;95.92
53300;BME280;39187;48.476;8.310;2023-02-25T07:20:28;90210.69;;;1.53;94.41
53300;BME280;39187;48.476;8.310;2023-02-25T07:22:53;90205.06;;;1.51;94.61
53300;BME280;39187;48.476;8.310;2023-02-25T07:25:19;90203.91;;;1.59;93.59
53300;BME280;39187;48.476;8.310;2023-02-25T07:27:45;90198.28;;;1.65;93.52
53300;BME280;39187;48.476;8.310;2023-02-25T07:30:11;90204.66;;;1.60;93.72
53300;BME280;39187;48.476;8.310;2023-02-25T07:32:38;90203.19;;;1.52;92.99
53300;BME280;39187;48.476;8.310;2023-02-25T07:35:04;90203.91;;;1.56;93.39
53300;BME280;39187;48.476;8.310;2023-02-25T07:37:30;90208.44;;;1.48;94.85
53300;BME280;39187;48.476;8.310;2023-02-25T07:39:56;90198.69;;;1.59;94.46
53300;BME280;39187;48.476;8.310;2023-02-25T07:42:27;90200.88;;;1.68;94.10
53300;BME280;39187;48.476;8.310;2023-02-25T07:44:53;90196.44;;;1.54;93.67
53300;BME280;39187;48.476;8.310;2023-02-25T07:47:19;90198.72;;;1.42;94.33
53300;BME280;39187;48.476;8.310;2023-02-25T07:49:46;90204.75;;;1.35;93.89
53300;BME280;39187;48.476;8.310;2023-02-25T07:52:11;90213.81;;;1.16;95.40
53300;BME280;39187;48.476;8.310;2023-02-25T07:54:37;90201.16;;;0.94;97.61
53300;BME280;39187;48.476;8.310;2023-02-25T07:57:02;90194.38;;;1.07;97.37
53300;BME280;39187;48.476;8.310;2023-02-25T07:59:30;90202.63;;;1.05;97.49
53300;BME280;39187;48.476;8.310;2023-02-25T08:01:56;90205.22;;;1.09;98.06
53300;BME280;39187;48.476;8.310;2023-02-25T08:04:21;90216.13;;;0.86;98.14
53300;BME280;39187;48.476;8.310;2023-02-25T08:06:47;90214.56;;;1.10;98.38
53300;BME280;39187;48.476;8.310;2023-02-25T08:09:13;90205.25;;;1.05;97.98
53300;BME280;39187;48.476;8.310;2023-02-25T08:11:39;90201.88;;;1.05;98.00
53300;BME280;39187;48.476;8.310;2023-02-25T08:14:05;90211.97;;;1.03;98.23
53300;BME280;39187;48.476;8.310;2023-02-25T08:16:32;90216.88;;;0.90;98.85
53300;BME280;39187;48.476;8.310;2023-02-25T08:18:57;90216.91;;;0.79;99.78
53300;BME280;39187;48.476;8.310;2023-02-25T08:21:24;90224.75;;;0.87;99.91
53300;BME280;39187;48.476;8.310;2023-02-25T08:23:53;90218.03;;;0.75;100.00
53300;BME280;39187;48.476;8.310;2023-02-25T08:26:20;90224.03;;;0.83;99.37
53300;BME280;39187;48.476;8.310;2023-02-25T08:28:47;90224.41;;;0.74;99.28
53300;BME280;39187;48.476;8.310;2023-02-25T08:31:13;90216.13;;;0.93;99.26
53300;BME280;39187;48.476;8.310;2023-02-25T08:33:41;90224.38;;;0.81;99.33
53300;BME280;39187;48.476;8.310;2023-02-25T08:36:13;90209.03;;;0.87;98.71
53300;BME280;39187;48.476;8.310;2023-02-25T08:38:40;90209.81;;;0.73;99.84
53300;BME280;39187;48.476;8.310;2023-02-25T08:41:07;90214.63;;;0.96;99.30
53300;BME280;39187;48.476;8.310;2023-02-25T08:43:34;90204.53;;;0.94;99.16
53300;BME280;39187;48.476;8.310;2023-02-25T08:46:00;90213.47;;;1.04;99.21
53300;BME280;39187;48.476;8.310;2023-02-25T08:48:26;90216.09;;;1.07;97.65
53300;BME280;39187;48.476;8.310;2023-02-25T08:50:52;90222.09;;;1.08;98.44
53300;BME280;39187;48.476;8.310;2023-02-25T08:53:17;90220.91;;;1.23;96.95
53300;BME280;39187;48.476;8.310;2023-02-25T08:55:43;90220.59;;;1.07;97.91
53300;BME280;39187;48.476;8.310;2023-02-25T08:58:11;90219.78;;;1.17;96.82
53300;BME280;39187;48.476;8.310;2023-02-25T09:00:37;90218.69;;;1.22;97.21
53300;BME280;39187;48.476;8.310;2023-02-25T09:03:02;90219.44;;;1.15;96.36
53300;BME280;39187;48.476;8.310;2023-02-25T09:05:28;90233.66;;;1.10;97.26
53300;BME280;39187;48.476;8.310;2023-02-25T09:07:54;90229.56;;;1.06;94.81
53300;BME280;39187;48.476;8.310;2023-02-25T09:10:19;90232.22;;;1.02;95.04
53300;BME280;39187;48.476;8.310;2023-02-25T09:12:45;90230.34;;;0.85;94.33
53300;BME280;39187;48.476;8.310;2023-02-25T09:15:12;90230.72;;;0.94;93.94
53300;BME280;39187;48.476;8.310;2023-02-25T09:17:39;90227.31;;;1.15;93.38
53300;BME280;39187;48.476;8.310;2023-02-25T09:20:05;90227.38;;;0.79;92.50
53300;BME280;39187;48.476;8.310;2023-02-25T09:22:37;90228.09;;;0.91;91.82
53300;BME280;39187;48.476;8.310;2023-02-25T09:25:05;90219.81;;;1.13;90.87
53300;BME280;39187;48.476;8.310;2023-02-25T09:27:31;90215.69;;;1.16;90.39
53300;BME280;39187;48.476;8.310;2023-02-25T09:29:57;90218.69;;;1.11;90.04
53300;BME280;39187;48.476;8.310;2023-02-25T09:32:22;90222.00;;;1.29;90.15
53300;BME280;39187;48.476;8.310;2023-02-25T09:34:49;90230.22;;;1.35;88.95
53300;BME280;39187;48.476;8.310;2023-02-25T09:37:15;90217.88;;;1.39;88.93
53300;BME280;39187;48.476;8.310;2023-02-25T09:40:47;90212.63;;;1.39;90.43
53300;BME280;39187;48.476;8.310;2023-02-25T09:43:39;90217.47;;;1.44;90.84
53300;BME280;39187;48.476;8.310;2023-02-25T09:46:15;90215.94;;;1.53;89.93
53300;BME280;39187;48.476;8.310;2023-02-25T09:49:02;90217.44;;;1.47;90.04
53300;BME280;39187;48.476;8.310;2023-02-25T09:51:42;90207.31;;;1.49;89.52
53300;BME280;39187;48.476;8.310;2023-02-25T09:56:48;90217.06;;;1.49;89.08
53300;BME280;39187;48.476;8.310;2023-02-25T09:59:17;90216.00;;;1.29;89.69
53300;BME280;39187;48.476;8.310;2023-02-25T10:02:19;90204.69;;;1.49;87.45
53300;BME280;39187;48.476;8.310;2023-02-25T10:05:30;90206.53;;;1.56;87.14
53300;BME280;39187;48.476;8.310;2023-02-25T10:10:41;90204.72;;;1.42;88.83
53300;BME280;39187;48.476;8.310;2023-02-25T10:13:20;90207.66;;;1.58;87.94
53300;BME280;39187;48.476;8.310;2023-02-25T10:19:33;90204.78;;;1.32;90.72
53300;BME280;39187;48.476;8.310;2023-02-25T10:24:51;90209.69;;;1.26;88.39
53300;BME280;39187;48.476;8.310;2023-02-25T10:27:20;90208.91;;;1.22;89.68
53300;BME280;39187;48.476;8.310;2023-02-25T10:29:55;90204.06;;;1.28;88.88
53300;BME280;39187;48.476;8.310;2023-02-25T10:32:30;90205.97;;;1.13;87.78
53300;BME280;39187;48.476;8.310;2023-02-25T10:35:18;90200.72;;;1.13;85.70
53300;BME280;39187;48.476;8.310;2023-02-25T10:37:44;90205.56;;;1.25;85.30
53300;BME280;39187;48.476;8.310;2023-02-25T10:40:23;90210.84;;;1.11;86.50
53300;BME280;39187;48.476;8.310;2023-02-25T10:42:51;90211.56;;;1.18;85.21
53300;BME280;39187;48.476;8.310;2023-02-25T10:45:30;90209.94;;;1.49;83.81
53300;BME280;39187;48.476;8.310;2023-02-25T10:48:18;90206.69;;;1.17;84.05
53300;BME280;39187;48.476;8.310;2023-02-25T10:53:30;90204.44;;;1.19;82.97
53300;BME280;39187;48.476;8.310;2023-02-25T10:55:58;90204.94;;;0.89;83.93
53300;BME280;39187;48.476;8.310;2023-02-25T10:58:29;90207.06;;;1.23;83.74
53300;BME280;39187;48.476;8.310;2023-02-25T11:00:59;90197.63;;;1.36;81.52
53300;BME280;39187;48.476;8.310;2023-02-25T11:03:29;90198.75;;;1.45;81.25
53300;BME280;39187;48.476;8.310;2023-02-25T11:06:08;90187.91;;;1.36;78.88
53300;BME280;39187;48.476;8.310;2023-02-25T11:08:34;90184.13;;;1.44;78.47
53300;BME280;39187;48.476;8.310;2023-02-25T11:14:14;90188.38;;;1.86;77.49
53300;BME280;39187;48.476;8.310;2023-02-25T11:16:40;90183.56;;;1.81;76.70
53300;BME280;39187;48.476;8.310;2023-02-25T11:19:21;90189.28;;;1.62;74.95
53300;BME280;39187;48.476;8.310;2023-02-25T11:21:50;90203.41;;;1.82;76.84
53300;BME280;39187;48.476;8.310;2023-02-25T11:24:30;90205.28;;;1.82;76.58
53300;BME280;39187;48.476;8.310;2023-02-25T11:27:21;90198.31;;;1.57;78.46
53300;BME280;39187;48.476;8.310;2023-02-25T11:29:52;90188.50;;;1.69;78.75
53300;BME280;39187;48.476;8.310;2023-02-25T11:32:26;90191.47;;;1.74;78.58
53300;BME280;39187;48.476;8.310;2023-02-25T11:35:06;90198.53;;;1.81;79.46
53300;BME280;39187;48.476;8.310;2023-02-25T11:37:45;90193.38;;;1.70;79.91
53300;BME280;39187;48.476;8.310;2023-02-25T11:40:31;90195.88;;;1.88;79.55
53300;BME280;39187;48.476;8.310;2023-02-25T11:43:13;90198.44;;;1.98;78.92
53300;BME280;39187;48.476;8.310;2023-02-25T11:45:58;90184.97;;;1.93;78.49
53300;BME280;39187;48.476;8.310;2023-02-25T11:56:48;90197.72;;;1.98;78.73
53300;BME280;39187;48.476;8.310;2023-02-25T12:02:31;90198.69;;;1.59;80.48
53300;BME280;39187;48.476;8.310;2023-02-25T12:19:09;90186.22;;;1.78;77.98
53300;BME280;39187;48.476;8.310;2023-02-25T12:22:26;90184.53;;;1.39;80.16
53300;BME280;39187;48.476;8.310;2023-02-25T12:28:08;90193.19;;;1.22;84.07
53300;BME280;39187;48.476;8.310;2023-02-25T12:31:01;90183.34;;;1.51;82.34
53300;BME280;39187;48.476;8.310;2023-02-25T12:42:37;90191.69;;;1.32;84.76
53300;BME280;39187;48.476;8.310;2023-02-25T12:45:20;90186.81;;;1.30;85.41
53300;BME280;39187;48.476;8.310;2023-02-25T12:55:58;90170.47;;;1.74;82.11
53300;BME280;39187;48.476;8.310;2023-02-25T12:59:00;90179.06;;;1.85;81.71
53300;BME280;39187;48.476;8.310;2023-02-25T13:08:02;90184.72;;;1.77;79.90
53300;BME280;39187;48.476;8.310;2023-02-25T13:16:03;90176.38;;;1.89;79.15
53300;BME280;39187;48.476;8.310;2023-02-25T13:38:16;90177.66;;;1.63;80.15
53300;BME280;39187;48.476;8.310;2023-02-25T13:46:51;90168.41;;;1.44;81.34
53300;BME280;39187;48.476;8.310;2023-02-25T13:52:32;90152.19;;;1.64;81.62
53300;BME280;39187;48.476;8.310;2023-02-25T13:55:15;90169.47;;;1.57;81.44
53300;BME280;39187;48.476;8.310;2023-02-25T13:58:47;90161.22;;;1.55;81.46
53300;BME280;39187;48.476;8.310;2023-02-25T14:01:03;90148.56;;;1.43;81.63
53300;BME280;39187;48.476;8.310;2023-02-25T14:04:00;90151.56;;;1.42;80.69
53300;BME280;39187;48.476;8.310;2023-02-25T14:12:46;90169.59;;;1.22;83.74
53300;BME280;39187;48.476;8.310;2023-02-25T14:15:46;90158.69;;;1.38;83.12
53300;BME280;39187;48.476;8.310;2023-02-25T14:18:50;90157.22;;;1.30;84.07
53300;BME280;39187;48.476;8.310;2023-02-25T14:21:35;90163.66;;;1.22;84.01
53300;BME280;39187;48.476;8.310;2023-02-25T14:24:32;90170.00;;;1.28;85.10
53300;BME280;39187;48.476;8.310;2023-02-25T14:27:10;90164.78;;;1.10;85.40
53300;BME280;39187;48.476;8.310;2023-02-25T14:36:10;90148.25;;;1.34;83.75
53300;BME280;39187;48.476;8.310;2023-02-25T14:44:43;90157.31;;;1.12;83.62
53300;BME280;39187;48.476;8.310;2023-02-25T14:47:38;90153.41;;;1.41;82.43
53300;BME280;39187;48.476;8.310;2023-02-25T15:07:27;90171.03;;;1.44;79.09
53300;BME280;39187;48.476;8.310;2023-02-25T15:12:57;90179.25;;;1.46;79.41
53300;BME280;39187;48.476;8.310;2023-02-25T15:15:48;90177.69;;;1.59;78.48
53300;BME280;39187;48.476;8.310;2023-02-25T15:18:40;90182.50;;;1.68;77.90
53300;BME280;39187;48.476;8.310;2023-02-25T15:23:56;90194.50;;;1.69;78.61
53300;BME280;39187;48.476;8.310;2023-02-25T15:26:25;90196.41;;;1.61;79.69
53300;BME280;39187;48.476;8.310;2023-02-25T15:28:52;90205.75;;;1.66;79.57
53300;BME280;39187;48.476;8.310;2023-02-25T15:31:26;90204.25;;;1.61;79.65
53300;BME280;39187;48.476;8.310;2023-02-25T15:34:07;90198.63;;;1.67;79.81
53300;BME280;39187;48.476;8.310;2023-02-25T15:36:42;90201.72;;;1.44;79.38
53300;BME280;39187;48.476;8.310;2023-02-25T15:39:09;90208.84;;;1.43;80.03
53300;BME280;39187;48.476;8.310;2023-02-25T15:41:36;90209.31;;;1.20;79.58
53300;BME280;39187;48.476;8.310;2023-02-25T15:46:47;90214.50;;;1.38;79.23
53300;BME280;39187;48.476;8.310;2023-02-25T15:59:49;90220.50;;;1.32;79.23
53300;BME280;39187;48.476;8.310;2023-02-25T16:04:57;90217.47;;;1.44;78.66
53300;BME280;39187;48.476;8.310;2023-02-25T16:07:30;90213.72;;;1.45;78.09
53300;BME280;39187;48.476;8.310;2023-02-25T16:10:18;90208.53;;;1.34;78.63
53300;BME280;39187;48.476;8.310;2023-02-25T16:12:48;90211.84;;;1.45;78.27
53300;BME280;39187;48.476;8.310;2023-02-25T16:15:38;90206.22;;;1.43;78.55
53300;BME280;39187;48.476;8.310;2023-02-25T16:20:45;90202.91;;;1.29;80.40
53300;BME280;39187;48.476;8.310;2023-02-25T16:23:13;90203.31;;;1.27;80.78
53300;BME280;39187;48.476;8.310;2023-02-25T16:25:47;90213.78;;;1.24;79.96
53300;BME280;39187;48.476;8.310;2023-02-25T16:31:18;90217.59;;;1.05;80.23
53300;BME280;39187;48.476;8.310;2023-02-25T16:33:52;90215.75;;;1.02;81.13
53300;BME280;39187;48.476;8.310;2023-02-25T16:36:36;90222.84;;;0.98;81.42
53300;BME280;39187;48.476;8.310;2023-02-25T16:39:23;90222.88;;;0.94;82.01